Time;durP1;ratioP1;P1;durP2;ratioP2;P2;SDS_P1;SDS_P2;PMS_P1;PMS_P2;Temp;Humidity;BMP_temperature;BMP_pressure;BME280_temperature;BME280_humidity;BME280_pressure;Samples;Min_cycle;Max_cycle;Signal;HPM_P1;HPM_P2
2021/01/25 00:00:11;;;;;;;1.20;0.70;;;1.80;51.50;;;;;;5037771;28;20060;-68
2021/01/25 00:02:36;;;;;;;2.85;0.82;;;1.70;54.30;;;;;;5038727;28;20032;-68
2021/01/25 00:05:07;;;;;;;1.00;0.70;;;1.60;57.10;;;;;;5038527;28;20026;-68
2021/01/25 00:07:34;;;;;;;1.38;0.77;;;1.50;53.50;;;;;;5038709;28;20033;-68
2021/01/25 00:09:59;;;;;;;1.67;1.00;;;1.50;52.90;;;;;;5038877;28;20029;-68
2021/01/25 00:12:27;;;;;;;2.42;1.00;;;1.40;55.00;;;;;;5039086;28;20360;-68
2021/01/25 00:14:54;;;;;;;2.35;0.90;;;1.30;55.00;;;;;;5038409;28;20116;-68
2021/01/25 00:17:20;;;;;;;1.50;0.90;;;1.30;54.50;;;;;;5038556;28;20033;-68
2021/01/25 00:19:46;;;;;;;2.28;1.58;;;1.30;55.70;;;;;;5037751;28;20021;-68
2021/01/25 00:22:12;;;;;;;2.67;1.38;;;1.20;57.10;;;;;;5038184;28;20033;-67
2021/01/25 00:24:39;;;;;;;2.63;1.33;;;1.10;57.60;;;;;;5037110;28;20410;-68
2021/01/25 00:27:05;;;;;;;1.73;1.20;;;1.10;58.30;;;;;;5038578;28;20037;-68
2021/01/25 00:29:32;;;;;;;1.60;0.95;;;1.20;57.00;;;;;;5038041;28;20052;-68
2021/01/25 00:31:58;;;;;;;2.80;1.23;;;1.30;55.10;;;;;;5038299;28;20151;-68
2021/01/25 00:34:24;;;;;;;2.88;1.17;;;1.40;56.20;;;;;;5038364;28;20076;-68
2021/01/25 00:36:50;;;;;;;1.58;0.95;;;1.40;57.00;;;;;;5038105;28;20033;-68
2021/01/25 00:39:16;;;;;;;1.70;0.93;;;1.40;55.30;;;;;;5038043;28;20130;-68
2021/01/25 00:41:42;;;;;;;1.42;0.85;;;1.60;51.90;;;;;;5038033;28;20068;-68
2021/01/25 00:44:07;;;;;;;1.63;1.05;;;1.70;51.50;;;;;;5037876;28;20418;-68
2021/01/25 00:46:33;;;;;;;2.47;1.10;;;1.70;51.90;;;;;;5036816;28;20056;-68
2021/01/25 00:48:59;;;;;;;1.60;0.90;;;1.70;52.70;;;;;;5038146;28;20036;-68
2021/01/25 00:51:24;;;;;;;1.33;0.82;;;1.70;52.70;;;;;;5037775;28;20029;-68
2021/01/25 00:53:50;;;;;;;1.92;1.10;;;1.70;49.40;;;;;;5037744;28;20406;-68
2021/01/25 00:56:16;;;;;;;1.75;1.00;;;1.90;50.00;;;;;;5038158;28;20034;-68
2021/01/25 00:58:41;;;;;;;2.00;1.17;;;1.80;52.80;;;;;;5037699;28;20057;-68
2021/01/25 01:01:07;;;;;;;1.33;0.70;;;1.70;54.10;;;;;;5038021;28;20034;-68
2021/01/25 01:03:33;;;;;;;1.20;0.60;;;1.70;51.00;;;;;;5037460;28;20029;-68
2021/01/25 01:05:59;;;;;;;0.60;0.40;;;1.80;49.10;;;;;;5037829;28;20314;-68
2021/01/25 01:08:25;;;;;;;1.45;0.88;;;2.00;48.70;;;;;;5037525;28;20406;-68
2021/01/25 01:10:50;;;;;;;2.15;0.90;;;2.10;48.90;;;;;;5036418;28;20079;-68
2021/01/25 01:13:16;;;;;;;2.25;0.88;;;2.00;50.40;;;;;;5036323;28;20433;-68
2021/01/25 01:15:42;;;;;;;1.60;1.00;;;2.00;49.90;;;;;;5037285;28;20033;-68
2021/01/25 01:18:08;;;;;;;2.53;1.00;;;2.00;52.00;;;;;;5037600;28;20361;-68
2021/01/25 01:20:33;;;;;;;2.35;1.13;;;1.90;53.20;;;;;;5037314;28;20024;-68
2021/01/25 01:23:00;;;;;;;1.92;1.02;;;1.60;54.90;;;;;;5037268;28;20022;-68
2021/01/25 01:25:26;;;;;;;3.50;0.70;;;1.50;53.40;;;;;;5037306;28;20103;-68
2021/01/25 01:27:52;;;;;;;1.20;0.90;;;1.60;51.70;;;;;;5037041;28;20370;-68
2021/01/25 01:30:18;;;;;;;1.85;1.20;;;1.60;53.50;;;;;;5037186;28;20040;-68
2021/01/25 01:32:43;;;;;;;1.60;0.95;;;1.50;53.50;;;;;;5035938;28;20317;-68
2021/01/25 01:35:10;;;;;;;1.08;0.70;;;1.50;54.00;;;;;;5036963;28;20029;-68
2021/01/25 01:37:36;;;;;;;0.95;0.50;;;1.40;49.50;;;;;;5037187;28;20329;-68
2021/01/25 01:40:07;;;;;;;0.90;0.60;;;1.30;49.50;;;;;;5037236;28;20454;-68
2021/01/25 01:42:33;;;;;;;1.08;0.50;;;1.30;50.60;;;;;;5036941;28;20088;-68
2021/01/25 01:45:01;;;;;;;1.02;0.52;;;1.20;51.40;;;;;;5036975;28;20113;-68
2021/01/25 01:47:28;;;;;;;1.45;0.50;;;1.10;50.30;;;;;;5036954;28;20104;-68
2021/01/25 01:49:56;;;;;;;0.60;0.38;;;1.00;50.90;;;;;;5036863;28;20026;-68
2021/01/25 01:52:22;;;;;;;0.60;0.40;;;0.90;52.60;;;;;;5036998;28;20060;-68
2021/01/25 01:54:49;;;;;;;0.73;0.30;;;0.90;52.50;;;;;;5036977;28;20038;-68
2021/01/25 01:57:15;;;;;;;0.57;0.30;;;0.80;53.70;;;;;;5037109;28;20032;-68
2021/01/25 01:59:41;;;;;;;0.38;0.30;;;0.80;54.30;;;;;;5036978;28;20026;-68
2021/01/25 02:02:06;;;;;;;0.95;0.60;;;0.70;55.60;;;;;;5036684;28;20021;-68
2021/01/25 02:04:33;;;;;;;0.57;0.40;;;0.60;54.60;;;;;;5036601;28;20415;-68
2021/01/25 02:07:02;;;;;;;1.25;0.43;;;0.60;56.70;;;;;;5035635;28;20361;-68
2021/01/25 02:09:30;;;;;;;0.95;0.60;;;0.60;58.40;;;;;;5036597;28;20035;-68
2021/01/25 02:11:56;;;;;;;0.98;0.60;;;0.60;60.40;;;;;;5036898;28;20022;-68
2021/01/25 02:14:22;;;;;;;1.23;0.77;;;0.60;60.40;;;;;;5036540;28;20034;-68
2021/01/25 02:16:48;;;;;;;1.13;0.65;;;0.50;61.80;;;;;;5036672;28;20112;-67
2021/01/25 02:19:26;;;;;;;0.95;0.50;;;0.50;63.70;;;;;;5036523;28;20402;-68
2021/01/25 02:22:25;;;;;;;1.30;0.70;;;0.50;58.00;;;;;;5036527;28;20021;-68
2021/01/25 02:25:19;;;;;;;1.13;0.70;;;0.70;53.50;;;;;;5035236;28;20433;-68
2021/01/25 02:27:45;;;;;;;1.75;0.80;;;0.90;54.90;;;;;;5036779;28;20029;-68
2021/01/25 02:30:13;;;;;;;1.38;0.80;;;1.00;55.30;;;;;;5036425;28;20436;-68
2021/01/25 02:32:40;;;;;;;1.42;0.63;;;1.00;55.20;;;;;;5036477;28;20109;-68
2021/01/25 02:35:09;;;;;;;1.60;0.82;;;0.90;57.40;;;;;;5036379;28;20026;-68
2021/01/25 02:37:38;;;;;;;1.00;0.70;;;0.80;57.00;;;;;;5036329;28;20025;-68
2021/01/25 02:40:06;;;;;;;1.20;0.70;;;0.80;55.10;;;;;;5036276;28;20045;-68
2021/01/25 02:42:33;;;;;;;1.15;0.70;;;0.70;57.80;;;;;;5036890;28;20101;-68
2021/01/25 02:45:01;;;;;;;1.02;0.60;;;0.50;59.30;;;;;;5038360;28;20057;-68
2021/01/25 02:47:28;;;;;;;1.35;0.80;;;0.40;60.40;;;;;;5040196;28;20021;-68
2021/01/25 02:49:54;;;;;;;1.13;0.60;;;0.30;63.50;;;;;;5040097;28;20053;-68
2021/01/25 02:52:19;;;;;;;0.90;0.60;;;0.20;63.10;;;;;;5040008;28;20033;-68
2021/01/25 02:54:46;;;;;;;1.05;0.65;;;0.20;62.60;;;;;;5039995;28;20033;-68
2021/01/25 02:57:14;;;;;;;1.10;0.60;;;0.10;62.50;;;;;;5040331;28;20057;-68
2021/01/25 02:59:41;;;;;;;0.68;0.50;;;0.00;62.90;;;;;;5040125;28;20036;-68
2021/01/25 03:02:07;;;;;;;1.15;0.60;;;0.00;63.40;;;;;;5040119;28;20120;-67
2021/01/25 03:04:38;;;;;;;2.28;0.60;;;0.00;63.00;;;;;;5039647;28;20076;-67
2021/01/25 03:07:05;;;;;;;1.20;0.60;;;0.00;63.90;;;;;;5040072;28;20022;-68
2021/01/25 03:09:32;;;;;;;1.40;0.70;;;0.20;57.40;;;;;;5039743;28;20032;-68
2021/01/25 03:12:00;;;;;;;0.80;0.57;;;0.40;55.90;;;;;;5039718;28;20045;-68
2021/01/25 03:14:26;;;;;;;1.33;0.60;;;0.70;55.50;;;;;;5038597;28;20033;-68
2021/01/25 03:16:52;;;;;;;1.23;0.68;;;1.00;54.70;;;;;;5039611;28;20036;-68
2021/01/25 03:19:17;;;;;;;1.60;0.60;;;1.20;55.10;;;;;;5039556;28;20104;-67
2021/01/25 03:21:47;;;;;;;1.20;0.68;;;1.30;54.40;;;;;;5038494;28;20461;-68
2021/01/25 03:24:13;;;;;;;1.50;0.80;;;1.30;55.50;;;;;;5039369;28;20032;-68
2021/01/25 03:26:39;;;;;;;1.17;0.60;;;1.20;55.60;;;;;;5039443;28;20317;-68
2021/01/25 03:29:05;;;;;;;0.82;0.55;;;1.10;55.50;;;;;;5039363;28;20196;-67
2021/01/25 03:31:30;;;;;;;0.80;0.50;;;1.20;54.60;;;;;;5039357;28;20023;-67
2021/01/25 03:33:56;;;;;;;0.73;0.50;;;1.20;55.60;;;;;;5039294;28;20402;-67
2021/01/25 03:36:22;;;;;;;1.75;0.57;;;1.20;55.10;;;;;;5039524;28;20038;-68
2021/01/25 03:38:47;;;;;;;1.08;0.60;;;1.30;54.70;;;;;;5039530;28;20038;-68
2021/01/25 03:41:13;;;;;;;1.00;0.57;;;1.40;54.20;;;;;;5039181;28;20049;-68
2021/01/25 03:43:38;;;;;;;1.35;0.65;;;1.40;54.40;;;;;;5039285;28;20329;-68
2021/01/25 03:46:04;;;;;;;0.90;0.50;;;1.50;53.60;;;;;;5039074;28;20421;-68
2021/01/25 03:48:30;;;;;;;1.38;0.60;;;1.50;53.80;;;;;;5038990;28;20026;-68
2021/01/25 03:50:55;;;;;;;0.63;0.43;;;1.50;53.20;;;;;;5039100;28;20021;-68
2021/01/25 03:53:21;;;;;;;0.93;0.57;;;1.60;53.00;;;;;;5038976;28;20307;-67
2021/01/25 03:55:47;;;;;;;1.80;0.50;;;1.60;52.90;;;;;;5037490;28;20028;-68
2021/01/25 03:58:13;;;;;;;0.95;0.60;;;1.60;53.20;;;;;;5039165;28;20037;-68
2021/01/25 04:00:39;;;;;;;0.77;0.60;;;1.60;53.10;;;;;;5039036;28;20017;-68
2021/01/25 04:03:05;;;;;;;1.02;0.50;;;1.60;53.20;;;;;;5038775;28;20025;-68
2021/01/25 04:05:31;;;;;;;1.00;0.60;;;1.60;56.20;;;;;;5038558;28;20052;-68
2021/01/25 04:07:57;;;;;;;1.40;0.80;;;1.40;55.00;;;;;;5038657;28;20037;-68
2021/01/25 04:10:22;;;;;;;1.15;0.73;;;1.30;56.00;;;;;;5038629;28;20025;-68
2021/01/25 04:12:48;;;;;;;1.45;0.80;;;1.30;55.50;;;;;;5038599;28;20326;-68
2021/01/25 04:15:15;;;;;;;1.25;0.77;;;1.30;57.60;;;;;;5038419;28;20029;-68
2021/01/25 04:17:40;;;;;;;1.40;0.90;;;1.20;57.50;;;;;;5038596;28;20108;-68
2021/01/25 04:20:07;;;;;;;1.52;0.73;;;1.20;56.60;;;;;;5038662;28;20121;-68
2021/01/25 04:22:32;;;;;;;1.30;0.70;;;1.20;56.80;;;;;;5038393;28;20039;-68
2021/01/25 04:24:59;;;;;;;1.20;0.70;;;1.10;57.40;;;;;;5038290;28;20380;-68
2021/01/25 04:27:25;;;;;;;1.30;0.60;;;1.00;56.60;;;;;;5038359;28;20108;-68
2021/01/25 04:29:51;;;;;;;1.02;0.57;;;1.00;56.80;;;;;;5038100;28;20084;-68
2021/01/25 04:32:18;;;;;;;1.15;0.60;;;1.00;55.10;;;;;;5038203;28;20022;-68
2021/01/25 04:34:44;;;;;;;0.88;0.40;;;1.00;55.80;;;;;;5038284;28;20067;-68
2021/01/25 04:37:10;;;;;;;3.63;0.70;;;1.10;54.60;;;;;;5038373;28;20429;-68
2021/01/25 04:39:37;;;;;;;0.82;0.55;;;1.10;55.00;;;;;;5038023;28;20056;-68
2021/01/25 04:42:04;;;;;;;0.50;0.40;;;1.20;53.80;;;;;;5038202;28;20040;-68
2021/01/25 04:44:31;;;;;;;1.33;0.60;;;1.20;53.80;;;;;;5037861;28;20152;-68
2021/01/25 04:47:00;;;;;;;0.73;0.40;;;1.30;53.20;;;;;;5038180;28;20028;-68
2021/01/25 04:49:26;;;;;;;1.20;1.10;;;1.40;52.30;;;;;;5037867;28;20410;-68
2021/01/25 04:51:53;;;;;;;1.05;0.43;;;1.50;52.40;;;;;;5037819;28;20033;-68
2021/01/25 04:54:19;;;;;;;0.93;0.50;;;1.70;52.20;;;;;;5037792;28;20033;-68
2021/01/25 04:56:45;;;;;;;1.00;0.50;;;1.80;49.80;;;;;;5037785;28;20044;-68
2021/01/25 04:59:11;;;;;;;0.95;0.47;;;1.90;49.50;;;;;;5037805;28;20029;-68
2021/01/25 05:01:36;;;;;;;0.90;0.57;;;2.10;48.20;;;;;;5037702;28;20333;-68
2021/01/25 05:04:02;;;;;;;0.50;0.40;;;2.20;47.70;;;;;;5037529;28;20068;-68
2021/01/25 05:06:28;;;;;;;0.75;0.50;;;2.30;47.40;;;;;;5037185;28;20014;-68
2021/01/25 05:08:54;;;;;;;1.20;0.40;;;2.40;47.70;;;;;;5036503;28;20406;-68
2021/01/25 05:11:19;;;;;;;1.27;0.43;;;2.40;48.30;;;;;;5037448;28;20463;-68
2021/01/25 05:13:45;;;;;;;0.60;0.40;;;2.30;47.70;;;;;;5037716;28;20067;-68
2021/01/25 05:16:19;;;;;;;0.88;0.50;;;2.40;47.00;;;;;;5037677;28;20033;-68
2021/01/25 05:18:46;;;;;;;1.75;0.80;;;2.50;47.80;;;;;;5036317;28;20112;-68
2021/01/25 05:21:12;;;;;;;1.17;0.52;;;2.20;51.70;;;;;;5037613;28;20053;-68
2021/01/25 05:23:39;;;;;;;0.93;0.50;;;1.90;52.80;;;;;;5037460;28;20025;-68
2021/01/25 05:26:07;;;;;;;0.63;0.30;;;1.80;50.80;;;;;;5037694;28;20429;-68
2021/01/25 05:28:42;;;;;;;0.95;0.60;;;1.90;48.80;;;;;;5037041;28;20053;-68
2021/01/25 05:31:22;;;;;;;1.40;0.52;;;2.00;51.00;;;;;;5037223;28;20028;-68
2021/01/25 05:33:48;;;;;;;1.42;0.47;;;1.90;50.40;;;;;;5037604;28;20030;-68
2021/01/25 05:36:30;;;;;;;2.83;0.50;;;1.80;50.90;;;;;;5036965;28;20029;-68
2021/01/25 05:38:56;;;;;;;1.38;0.40;;;1.80;50.80;;;;;;5037025;28;20021;-68
2021/01/25 05:41:22;;;;;;;0.65;0.47;;;1.80;50.20;;;;;;5037085;28;20047;-68
2021/01/25 05:43:50;;;;;;;0.77;0.50;;;1.80;51.20;;;;;;5036893;28;20383;-68
2021/01/25 05:46:18;;;;;;;0.70;0.50;;;1.70;51.00;;;;;;5036870;28;20036;-68
2021/01/25 05:48:56;;;;;;;0.70;0.47;;;1.70;50.10;;;;;;5036800;28;20029;-68
2021/01/25 05:51:21;;;;;;;0.77;0.40;;;1.80;50.10;;;;;;5036911;28;20328;-68
2021/01/25 05:53:48;;;;;;;1.08;0.50;;;1.70;50.40;;;;;;5036767;28;20029;-67
2021/01/25 05:56:15;;;;;;;0.98;0.50;;;1.70;50.90;;;;;;5037197;28;20476;-68
2021/01/25 05:58:41;;;;;;;1.08;0.60;;;1.60;50.90;;;;;;5036758;28;20104;-68
2021/01/25 06:01:08;;;;;;;0.85;0.50;;;1.50;51.30;;;;;;5037003;28;20033;-68
2021/01/25 06:03:38;;;;;;;0.90;0.50;;;1.40;52.00;;;;;;5036630;28;20299;-68
2021/01/25 06:06:20;;;;;;;1.23;0.85;;;1.20;53.20;;;;;;5035602;28;20021;-68
2021/01/25 06:09:11;;;;;;;1.13;0.60;;;1.00;54.60;;;;;;5036712;28;20025;-68
2021/01/25 06:11:41;;;;;;;0.75;0.50;;;1.00;53.40;;;;;;5036606;28;20060;-68
2021/01/25 06:14:17;;;;;;;1.77;0.60;;;1.00;52.70;;;;;;5035593;28;20410;-68
2021/01/25 06:16:48;;;;;;;0.98;0.55;;;1.10;52.50;;;;;;5036596;28;20037;-68
2021/01/25 06:19:16;;;;;;;1.27;0.60;;;1.20;52.20;;;;;;5038775;28;20385;-68
2021/01/25 06:21:44;;;;;;;1.10;0.43;;;1.30;52.00;;;;;;5040652;28;20037;-68
2021/01/25 06:24:11;;;;;;;0.60;0.40;;;1.40;51.00;;;;;;5040598;28;20023;-68
2021/01/25 06:26:39;;;;;;;0.60;0.38;;;1.40;50.30;;;;;;5039471;28;20068;-68
2021/01/25 06:29:08;;;;;;;1.17;0.50;;;1.40;51.80;;;;;;5040333;28;20050;-68
2021/01/25 06:31:36;;;;;;;0.93;0.50;;;1.40;52.40;;;;;;5040486;28;20022;-68
2021/01/25 06:34:04;;;;;;;1.60;1.10;;;1.40;52.20;;;;;;5040433;28;20029;-68
2021/01/25 06:36:32;;;;;;;2.85;1.25;;;1.30;56.30;;;;;;5040362;28;20441;-68
2021/01/25 06:38:58;;;;;;;3.33;1.60;;;1.10;59.30;;;;;;5040372;28;20360;-68
2021/01/25 06:41:24;;;;;;;4.10;2.65;;;0.90;59.10;;;;;;5040238;28;20418;-68
2021/01/25 06:43:50;;;;;;;4.80;3.30;;;0.70;59.10;;;;;;5039103;28;20032;-68
2021/01/25 06:46:20;;;;;;;2.95;1.67;;;0.60;60.00;;;;;;5040233;28;20030;-68
2021/01/25 06:48:52;;;;;;;3.38;1.98;;;0.50;59.90;;;;;;5040101;28;20025;-68
2021/01/25 06:51:19;;;;;;;3.60;1.60;;;0.40;60.80;;;;;;5040169;28;20033;-68
2021/01/25 06:53:49;;;;;;;2.08;1.05;;;0.20;61.80;;;;;;5040142;28;20474;-68
2021/01/25 06:56:14;;;;;;;1.17;0.70;;;0.00;61.70;;;;;;5040507;28;20040;-68
2021/01/25 06:58:49;;;;;;;1.50;0.88;;;-0.10;62.70;;;;;;5040012;28;20022;-68
2021/01/25 07:01:22;;;;;;;1.10;0.60;;;-0.20;63.80;;;;;;5039975;28;20104;-68
2021/01/25 07:03:56;;;;;;;2.38;0.90;;;-0.30;63.20;;;;;;5040338;28;20087;-68
2021/01/25 07:06:35;;;;;;;0.98;0.70;;;-0.30;63.00;;;;;;5039834;28;20429;-68
2021/01/25 07:09:04;;;;;;;1.30;0.80;;;-0.30;63.70;;;;;;5039907;28;20151;-68
2021/01/25 07:11:31;;;;;;;1.42;0.60;;;-0.20;62.90;;;;;;5039750;28;20025;-68
2021/01/25 07:13:59;;;;;;;0.60;0.50;;;-0.10;61.90;;;;;;5039708;28;20033;-68
2021/01/25 07:16:26;;;;;;;2.08;0.60;;;0.00;60.50;;;;;;5038536;28;20033;-68
2021/01/25 07:18:53;;;;;;;0.75;0.40;;;0.10;60.60;;;;;;5039632;28;20074;-68
2021/01/25 07:21:21;;;;;;;0.60;0.40;;;0.30;61.10;;;;;;5039592;28;20410;-68
2021/01/25 07:23:49;;;;;;;0.57;0.30;;;0.50;59.60;;;;;;5039475;28;20017;-68
2021/01/25 07:26:17;;;;;;;0.65;0.63;;;0.70;57.40;;;;;;5039986;28;20029;-68
2021/01/25 07:28:43;;;;;;;0.57;0.38;;;0.90;56.20;;;;;;5038255;28;20132;-68
2021/01/25 07:31:10;;;;;;;0.60;0.40;;;0.90;54.80;;;;;;5038006;28;20022;-68
2021/01/25 07:33:39;;;;;;;0.50;0.30;;;1.00;52.80;;;;;;5039653;28;20021;-68
2021/01/25 07:36:06;;;;;;;1.48;0.70;;;1.10;52.20;;;;;;5039256;28;20040;-68
2021/01/25 07:38:31;;;;;;;1.65;0.80;;;1.30;51.00;;;;;;5039425;28;20018;-68
2021/01/25 07:40:59;;;;;;;1.55;0.98;;;1.50;50.70;;;;;;5039200;28;20317;-68
2021/01/25 07:43:27;;;;;;;1.13;0.70;;;1.60;51.80;;;;;;5039154;28;20028;-68
2021/01/25 07:45:54;;;;;;;0.95;0.55;;;1.90;50.20;;;;;;5039013;28;20036;-68
2021/01/25 07:48:20;;;;;;;0.88;0.50;;;2.20;49.70;;;;;;5039372;28;20034;-68
2021/01/25 07:50:58;;;;;;;2.58;0.60;;;2.40;49.80;;;;;;5039089;28;20149;-68
2021/01/25 07:53:24;;;;;;;0.57;0.40;;;2.50;50.30;;;;;;5039236;28;20029;-68
2021/01/25 07:55:50;;;;;;;7.40;0.70;;;2.50;50.30;;;;;;5038727;28;20481;-68
2021/01/25 07:58:16;;;;;;;1.70;0.50;;;2.40;51.30;;;;;;5039131;28;20030;-68
2021/01/25 08:00:42;;;;;;;1.08;0.60;;;2.30;50.60;;;;;;5038960;28;20429;-68
2021/01/25 08:03:16;;;;;;;0.50;0.40;;;2.20;50.50;;;;;;5038829;28;20031;-68
2021/01/25 08:05:47;;;;;;;1.48;0.80;;;2.20;51.40;;;;;;5038639;28;20025;-68
2021/01/25 08:08:13;;;;;;;2.05;0.98;;;2.10;55.30;;;;;;5038827;28;20049;-68
2021/01/25 08:10:40;;;;;;;3.72;1.10;;;2.10;56.70;;;;;;5038667;28;20119;-68
2021/01/25 08:13:17;;;;;;;1.80;0.85;;;2.00;55.70;;;;;;5038622;28;20524;-68
2021/01/25 08:16:15;;;;;;;1.38;0.60;;;1.90;56.00;;;;;;5038511;28;20036;-68
2021/01/25 08:19:02;;;;;;;1.20;0.43;;;1.90;56.50;;;;;;5039396;28;20305;-68
2021/01/25 08:21:34;;;;;;;0.45;0.40;;;1.90;57.70;;;;;;5038522;28;20025;-68
2021/01/25 08:24:03;;;;;;;1.27;0.50;;;1.90;60.20;;;;;;5038280;28;20033;-68
2021/01/25 08:26:30;;;;;;;4.55;0.60;;;2.00;60.90;;;;;;5038296;28;20018;-68
2021/01/25 08:29:15;;;;;;;0.90;0.57;;;2.10;54.60;;;;;;5038130;28;20496;-68
2021/01/25 08:31:44;;;;;;;1.70;0.68;;;2.20;54.20;;;;;;5038480;28;20021;-68
2021/01/25 08:34:29;;;;;;;1.35;0.70;;;2.30;54.00;;;;;;5038205;28;20026;-68
2021/01/25 08:37:07;;;;;;;1.85;0.90;;;2.40;54.50;;;;;;5038141;28;20322;-68
2021/01/25 08:39:42;;;;;;;2.30;0.63;;;2.60;55.20;;;;;;5038151;28;20021;-68
2021/01/25 08:42:16;;;;;;;1.15;0.75;;;2.80;54.20;;;;;;5037324;28;20017;-68
2021/01/25 08:44:51;;;;;;;1.33;0.70;;;2.90;55.00;;;;;;5037887;28;20025;-68
2021/01/25 08:47:23;;;;;;;1.38;0.82;;;2.90;54.60;;;;;;5038209;28;20032;-68
2021/01/25 08:49:50;;;;;;;1.95;0.90;;;2.90;53.90;;;;;;5038112;28;20022;-68
2021/01/25 08:52:24;;;;;;;2.55;0.60;;;2.90;53.30;;;;;;5037870;28;20021;-68
2021/01/25 08:54:49;;;;;;;0.90;0.70;;;2.90;52.30;;;;;;5038010;28;20105;-68
2021/01/25 08:57:18;;;;;;;0.82;0.63;;;2.80;52.90;;;;;;5038121;28;20056;-68
2021/01/25 08:59:44;;;;;;;1.08;0.60;;;2.70;52.50;;;;;;5037724;28;20039;-68
2021/01/25 09:02:22;;;;;;;1.00;0.70;;;2.70;53.30;;;;;;5037680;28;20044;-68
2021/01/25 09:04:51;;;;;;;1.77;0.70;;;2.70;53.60;;;;;;5036485;28;20036;-68
2021/01/25 09:07:20;;;;;;;1.23;0.77;;;2.80;54.50;;;;;;5036571;28;20022;-68
2021/01/25 09:09:46;;;;;;;0.88;0.50;;;2.80;54.50;;;;;;5037790;28;20026;-68
2021/01/25 09:12:17;;;;;;;1.15;0.70;;;2.80;54.10;;;;;;5037498;28;20025;-68
2021/01/25 09:14:44;;;;;;;1.40;0.70;;;2.80;54.60;;;;;;5037322;28;20041;-68
2021/01/25 09:17:11;;;;;;;1.55;0.80;;;2.80;55.00;;;;;;5037572;28;20026;-68
2021/01/25 09:19:37;;;;;;;1.10;0.70;;;2.90;55.00;;;;;;5037758;28;20036;-68
2021/01/25 09:22:09;;;;;;;1.67;1.00;;;2.90;53.60;;;;;;5037336;28;20298;-68
2021/01/25 09:24:37;;;;;;;1.27;0.90;;;2.90;52.90;;;;;;5037058;28;20037;-68
2021/01/25 09:27:03;;;;;;;1.48;0.80;;;3.00;54.20;;;;;;5037265;28;20410;-68
2021/01/25 09:29:29;;;;;;;1.25;0.77;;;3.10;54.00;;;;;;5037057;28;20045;-68
2021/01/25 09:31:54;;;;;;;1.42;0.68;;;3.20;54.00;;;;;;5037194;28;20026;-68
2021/01/25 09:34:20;;;;;;;1.48;0.70;;;3.40;53.20;;;;;;5037196;28;20026;-68
2021/01/25 09:36:46;;;;;;;1.55;0.80;;;3.50;53.30;;;;;;5037091;28;20117;-68
2021/01/25 09:39:14;;;;;;;0.93;0.57;;;3.60;53.90;;;;;;5037071;28;20029;-68
2021/01/25 09:41:43;;;;;;;1.25;0.60;;;3.80;54.50;;;;;;5037009;28;20108;-68
2021/01/25 09:44:10;;;;;;;1.13;0.70;;;3.90;54.60;;;;;;5037004;28;20075;-68
2021/01/25 09:46:36;;;;;;;1.10;0.65;;;4.10;54.00;;;;;;5036837;28;20029;-68
2021/01/25 09:49:02;;;;;;;1.33;0.82;;;4.30;53.60;;;;;;5036864;28;20113;-68
2021/01/25 09:51:28;;;;;;;1.25;0.80;;;4.50;53.40;;;;;;5036895;28;20405;-68
2021/01/25 09:53:53;;;;;;;1.73;0.80;;;4.70;53.30;;;;;;5036805;28;20025;-68
2021/01/25 09:56:19;;;;;;;1.77;1.00;;;4.70;52.20;;;;;;5036667;28;20079;-68
2021/01/25 09:58:44;;;;;;;1.70;0.88;;;4.70;52.30;;;;;;5036756;28;20034;-68
2021/01/25 10:01:10;;;;;;;1.60;0.95;;;4.60;53.00;;;;;;5036731;28;20065;-68
2021/01/25 10:03:36;;;;;;;1.63;0.93;;;4.60;52.60;;;;;;5036597;28;20025;-68
2021/01/25 10:06:02;;;;;;;1.50;0.90;;;4.70;53.00;;;;;;5036652;28;20022;-68
2021/01/25 10:08:27;;;;;;;1.85;0.90;;;4.80;52.00;;;;;;5036261;28;20057;-68
2021/01/25 10:10:53;;;;;;;2.92;0.90;;;4.90;52.70;;;;;;5041084;28;20051;-68
2021/01/25 10:13:18;;;;;;;2.00;1.20;;;5.10;52.70;;;;;;5052336;28;20087;-68
2021/01/25 10:15:44;;;;;;;1.55;0.93;;;5.30;52.20;;;;;;5056474;28;20092;-68
2021/01/25 10:18:10;;;;;;;2.67;0.98;;;5.80;53.30;;;;;;5056487;28;20056;-68
2021/01/25 10:20:36;;;;;;;2.95;1.10;;;6.30;52.90;;;;;;5056466;28;20021;-68
2021/01/25 10:23:03;;;;;;;4.30;1.80;;;6.60;51.50;;;;;;5056555;28;20025;-68
2021/01/25 10:25:29;;;;;;;2.22;1.38;;;7.00;53.60;;;;;;5056648;28;20026;-68
2021/01/25 10:27:55;;;;;;;1.80;1.25;;;7.30;50.90;;;;;;5056442;28;20083;-68
2021/01/25 10:30:21;;;;;;;2.47;1.50;;;7.60;51.00;;;;;;5056579;28;20022;-68
2021/01/25 10:32:46;;;;;;;3.70;1.50;;;7.70;49.40;;;;;;5056390;28;20409;-68
2021/01/25 10:35:13;;;;;;;2.45;1.42;;;7.90;50.70;;;;;;5056202;28;20029;-68
2021/01/25 10:37:41;;;;;;;2.47;1.48;;;8.00;53.60;;;;;;5056793;28;20378;-68
2021/01/25 10:40:08;;;;;;;2.05;1.35;;;7.90;49.10;;;;;;5056473;28;20045;-68
2021/01/25 10:42:33;;;;;;;3.22;1.83;;;7.50;50.10;;;;;;5056290;28;20328;-68
2021/01/25 10:44:59;;;;;;;3.30;1.73;;;7.10;50.20;;;;;;5056350;28;20033;-68
2021/01/25 10:47:26;;;;;;;3.47;1.70;;;6.80;52.60;;;;;;5056373;28;20025;-68
2021/01/25 10:49:51;;;;;;;2.67;1.60;;;6.70;51.60;;;;;;5056192;28;20150;-68
2021/01/25 10:52:18;;;;;;;3.25;2.45;;;6.50;54.50;;;;;;5056234;28;20067;-68
2021/01/25 10:54:44;;;;;;;2.78;1.85;;;6.30;57.70;;;;;;5056005;28;20025;-68
2021/01/25 10:57:10;;;;;;;2.22;1.50;;;6.10;57.30;;;;;;5056197;28;20036;-68
2021/01/25 10:59:36;;;;;;;2.85;1.50;;;6.00;54.10;;;;;;5056407;28;20095;-68
2021/01/25 11:02:05;;;;;;;3.13;1.63;;;6.00;55.30;;;;;;5056238;28;20037;-68
2021/01/25 11:04:31;;;;;;;2.83;1.67;;;5.90;55.60;;;;;;5056848;28;20096;-68
2021/01/25 11:06:56;;;;;;;2.95;1.92;;;5.90;54.80;;;;;;5060115;28;20062;-68
2021/01/25 11:09:23;;;;;;;2.50;1.77;;;6.00;54.50;;;;;;5060083;28;20286;-68
2021/01/25 11:11:50;;;;;;;2.80;2.03;;;6.10;55.40;;;;;;5059723;28;20409;-68
2021/01/25 11:14:16;;;;;;;3.78;2.10;;;6.40;54.40;;;;;;5059638;28;20044;-68
2021/01/25 11:16:42;;;;;;;2.78;1.60;;;6.50;54.70;;;;;;5059916;28;20376;-68
2021/01/25 11:19:08;;;;;;;2.40;1.48;;;6.80;54.40;;;;;;5059787;28;20025;-68
2021/01/25 11:21:34;;;;;;;3.90;2.55;;;6.90;53.00;;;;;;5059540;28;20440;-68
2021/01/25 11:24:00;;;;;;;3.45;1.77;;;7.10;55.80;;;;;;5059331;28;20025;-68
2021/01/25 11:26:27;;;;;;;4.03;1.35;;;7.10;52.90;;;;;;5059440;28;20066;-68
2021/01/25 11:28:53;;;;;;;1.90;1.23;;;7.00;53.30;;;;;;5059202;28;20053;-68
2021/01/25 11:31:19;;;;;;;2.67;1.30;;;6.70;52.50;;;;;;5059409;28;20032;-68
2021/01/25 11:33:44;;;;;;;2.40;1.30;;;6.80;51.40;;;;;;5059565;28;20108;-68
2021/01/25 11:36:10;;;;;;;4.55;1.60;;;6.80;50.60;;;;;;5059227;28;20025;-68
2021/01/25 11:38:36;;;;;;;2.65;1.40;;;7.00;51.80;;;;;;5059243;28;20032;-68
2021/01/25 11:41:02;;;;;;;2.35;1.30;;;7.00;51.10;;;;;;5059227;28;20025;-68
2021/01/25 11:43:28;;;;;;;2.53;1.38;;;7.00;52.20;;;;;;5059374;28;20029;-68
2021/01/25 11:45:54;;;;;;;2.15;1.45;;;6.90;52.50;;;;;;5059053;28;20108;-68
2021/01/25 11:48:20;;;;;;;1.92;1.38;;;6.50;50.50;;;;;;5059064;28;20021;-68
2021/01/25 11:50:48;;;;;;;2.03;1.17;;;6.00;52.00;;;;;;5059107;28;20025;-68
2021/01/25 11:53:14;;;;;;;1.73;1.08;;;5.80;53.20;;;;;;5058834;28;20071;-68
2021/01/25 11:55:41;;;;;;;1.83;1.23;;;5.50;53.10;;;;;;5058764;28;20037;-68
2021/01/25 11:58:10;;;;;;;1.60;1.10;;;5.30;54.30;;;;;;5057823;28;20487;-68
2021/01/25 12:00:36;;;;;;;2.03;1.27;;;5.20;56.00;;;;;;5058781;28;20413;-68
2021/01/25 12:03:02;;;;;;;1.50;1.00;;;5.20;55.60;;;;;;5058845;28;20066;-68
2021/01/25 12:05:29;;;;;;;1.85;1.00;;;5.30;55.60;;;;;;5057529;28;20029;-68
2021/01/25 12:07:55;;;;;;;3.40;1.33;;;5.20;52.90;;;;;;5058669;28;20478;-68
2021/01/25 12:10:21;;;;;;;3.42;1.00;;;4.80;54.30;;;;;;5058625;28;20107;-68
2021/01/25 12:12:46;;;;;;;2.05;1.08;;;4.60;54.60;;;;;;5059174;28;20040;-68
2021/01/25 12:15:14;;;;;;;1.20;0.75;;;4.50;54.50;;;;;;5058253;28;20032;-68
2021/01/25 12:17:39;;;;;;;0.60;0.40;;;4.40;52.10;;;;;;5057578;28;20035;-68
2021/01/25 12:20:06;;;;;;;1.55;0.80;;;4.20;51.60;;;;;;5058457;28;20146;-68
2021/01/25 12:22:31;;;;;;;0.82;0.50;;;4.00;52.10;;;;;;5058420;28;20036;-68
2021/01/25 12:24:58;;;;;;;1.77;1.10;;;3.90;52.80;;;;;;5058134;28;20029;-68
2021/01/25 12:27:23;;;;;;;2.22;1.52;;;3.90;53.00;;;;;;5058329;28;20022;-68
2021/01/25 12:29:49;;;;;;;3.13;0.85;;;3.80;54.40;;;;;;5058103;28;20052;-68
2021/01/25 12:32:15;;;;;;;2.10;1.25;;;3.70;54.80;;;;;;5058213;28;20092;-68
2021/01/25 12:34:42;;;;;;;2.08;1.35;;;3.50;56.10;;;;;;5058090;28;20103;-68
2021/01/25 12:37:08;;;;;;;2.28;1.10;;;3.40;56.60;;;;;;5058440;28;20032;-68
2021/01/25 12:39:34;;;;;;;2.95;1.52;;;3.30;56.50;;;;;;5058669;28;20082;-68
2021/01/25 12:41:59;;;;;;;2.90;1.42;;;3.20;57.00;;;;;;5058065;28;20029;-68
2021/01/25 12:44:25;;;;;;;4.68;1.27;;;3.10;57.20;;;;;;5057910;28;20025;-68
2021/01/25 12:46:51;;;;;;;1.85;0.98;;;3.00;57.40;;;;;;5057958;28;20024;-68
2021/01/25 12:49:19;;;;;;;1.00;0.60;;;3.00;56.10;;;;;;5058122;28;20313;-68
2021/01/25 12:51:46;;;;;;;4.95;1.35;;;3.20;54.60;;;;;;5057864;28;20017;-68
2021/01/25 12:54:12;;;;;;;2.42;1.40;;;3.40;55.80;;;;;;5057758;28;20033;-68
2021/01/25 12:56:37;;;;;;;2.63;1.08;;;3.20;56.90;;;;;;5057983;28;20032;-68
2021/01/25 12:59:04;;;;;;;1.50;1.00;;;3.00;56.30;;;;;;5057728;28;20036;-68